Etusivu
METAR-TAF:

METAR-TAF

Lentoasemat :

Olive Branch Airport

Olive Branch, Mississippi, Yhdysvallat

Leveyspiiri: 34-58-44N, Pituuspiiri: 089-47-13W, korkeus merenpinnasta: 122 m

Tämänhetkinen sää

Tämä raportti tehtiin 8 minuuttia sitten, kello 11.15 UTC
Tuuli 8 kn etelästä/kaakosta puuskistuen 13 kn:hen
Lämpötila 8°C
Kosteus 100%
Ilmanpaine 1011 hPa
Näkyvyys: 16.1 km
Hajonneita pilviä 3200 ft:n korkeudessa
Pilvistä 4300 ft:n korkeudessa

METAR: KOLV 241115Z AUTO 16008G13KT 10SM BKN032 OVC043 08/08 A2985 RMK A01

Aika: 05:23 (11:23 UTC)


TAF: puuttuu

Säähavainnot ja -ennusteet yli 4000 lentoasemalta (METAR- ja TAF-raportit).

Käytössä olevat sääasemat on merkitty karttaan keltaisilla ja punaisilla pisteillä.

Aseta hiiri pisteen päälle nähdäksesi sääaseman nimen.

Klikkaa sitten nähdäksesi säähavainnot ja -ennusteet.

Kartan vaihtaminen: klikkaa mustalla rastilla varustettuja vihreitä pisteitä, niin voit zoomata sisään; viivalla varustettua vihreää pistettä, niin voit zoomata ulos tai vihreitä nuolia, niin pääset viereisille kartoille.


METAR-TAF: